Time;durP1;ratioP1;P1;durP2;ratioP2;P2;SDS_P1;SDS_P2;PMS_P1;PMS_P2;Temp;Humidity;BMP_temperature;BMP_pressure;BME280_temperature;BME280_humidity;BME280_pressure;Samples;Min_cycle;Max_cycle;Signal;HPM_P1;HPM_P2
2023/12/13 00:00:40;;;;;;;7.15;2.53;;;9.60;99.90;;;;;;5113625;28;20665;-63
2023/12/13 00:03:06;;;;;;;5.85;2.20;;;9.60;99.90;;;;;;5113792;28;20173;-62
2023/12/13 00:05:31;;;;;;;9.10;3.50;;;9.60;99.90;;;;;;5113548;28;20661;-63
2023/12/13 00:07:57;;;;;;;7.35;3.10;;;9.60;99.90;;;;;;5113501;28;20218;-63
2023/12/13 00:10:23;;;;;;;7.93;2.70;;;9.70;99.90;;;;;;5113410;28;20235;-63
2023/12/13 00:12:48;;;;;;;11.02;2.90;;;9.70;99.90;;;;;;5113774;28;20623;-62
2023/12/13 00:15:14;;;;;;;7.35;2.65;;;9.60;99.90;;;;;;5113756;28;20257;-63
2023/12/13 00:17:40;;;;;;;9.57;3.00;;;9.60;99.90;;;;;;5113734;28;20252;-63
2023/12/13 00:20:07;;;;;;;8.13;2.80;;;9.70;99.90;;;;;;5113728;28;20208;-63
2023/12/13 00:22:33;;;;;;;8.98;2.45;;;9.70;99.90;;;;;;5113575;28;20229;-63
2023/12/13 00:24:58;;;;;;;8.75;2.75;;;9.70;99.90;;;;;;5113618;28;20181;-62
2023/12/13 00:27:24;;;;;;;9.27;2.88;;;9.70;99.90;;;;;;5113645;28;20496;-63
2023/12/13 00:29:49;;;;;;;8.43;3.30;;;9.80;99.90;;;;;;5113526;28;20228;-63
2023/12/13 00:32:15;;;;;;;6.20;2.67;;;9.70;99.90;;;;;;5113552;28;20200;-66
2023/12/13 00:34:41;;;;;;;11.38;3.17;;;9.70;99.90;;;;;;5094103;28;20209;-63
2023/12/13 00:37:07;;;;;;;8.32;3.38;;;9.70;99.90;;;;;;5112863;28;20213;-63
2023/12/13 00:39:32;;;;;;;10.18;3.30;;;9.70;99.90;;;;;;5113633;28;20174;-63
2023/12/13 00:41:58;;;;;;;12.63;3.63;;;9.70;99.90;;;;;;5113373;28;20177;-62
2023/12/13 00:44:23;;;;;;;7.78;3.13;;;9.70;99.90;;;;;;5113155;28;20175;-63
2023/12/13 00:46:49;;;;;;;9.60;2.83;;;9.70;99.90;;;;;;5113337;28;20208;-63
2023/12/13 00:49:15;;;;;;;8.40;2.95;;;9.60;99.90;;;;;;5114292;28;20207;-63
2023/12/13 00:51:40;;;;;;;10.35;3.60;;;9.60;99.90;;;;;;5117116;28;20174;-63
2023/12/13 00:54:06;;;;;;;7.18;3.22;;;9.70;99.90;;;;;;5117128;28;20672;-63
2023/12/13 00:56:31;;;;;;;10.57;3.70;;;9.60;99.90;;;;;;5116741;28;20534;-63
2023/12/13 00:58:57;;;;;;;6.93;2.65;;;9.70;99.90;;;;;;5116980;28;20192;-63
2023/12/13 01:01:24;;;;;;;10.48;3.03;;;9.60;99.90;;;;;;5116957;28;20170;-62
2023/12/13 01:03:49;;;;;;;6.82;2.60;;;9.60;99.90;;;;;;5116878;28;20230;-63
2023/12/13 01:06:15;;;;;;;12.55;3.38;;;9.60;99.90;;;;;;5116866;28;20169;-63
2023/12/13 01:08:43;;;;;;;8.05;2.63;;;9.60;99.90;;;;;;5116742;28;20265;-63
2023/12/13 01:11:10;;;;;;;9.98;2.88;;;9.60;99.90;;;;;;5116489;28;20178;-63
2023/12/13 01:13:37;;;;;;;7.57;2.70;;;9.60;99.90;;;;;;5116728;28;20187;-63
2023/12/13 01:16:03;;;;;;;10.35;2.72;;;9.60;99.90;;;;;;5116599;28;20177;-63
2023/12/13 01:18:29;;;;;;;10.23;3.70;;;9.60;99.90;;;;;;5116636;28;20184;-63
2023/12/13 01:20:54;;;;;;;11.40;3.60;;;9.60;99.90;;;;;;5116246;28;20289;-63
2023/12/13 01:23:20;;;;;;;8.88;3.65;;;9.60;99.90;;;;;;5116697;28;20239;-63
2023/12/13 01:25:46;;;;;;;10.13;3.63;;;9.60;99.90;;;;;;5115135;28;20218;-62
2023/12/13 01:28:11;;;;;;;9.65;2.78;;;9.60;99.90;;;;;;5116193;28;20216;-63
2023/12/13 01:30:37;;;;;;;10.70;2.90;;;9.60;99.90;;;;;;5116338;28;20233;-63
2023/12/13 01:33:02;;;;;;;11.00;3.05;;;9.70;99.90;;;;;;5116330;28;20177;-63
2023/12/13 01:35:28;;;;;;;13.25;3.35;;;9.60;99.90;;;;;;5116504;28;20177;-63
2023/12/13 01:37:54;;;;;;;10.48;3.33;;;9.60;99.90;;;;;;5116202;28;20177;-63
2023/12/13 01:40:19;;;;;;;11.98;2.88;;;9.60;99.90;;;;;;5116039;28;20173;-63
2023/12/13 01:42:45;;;;;;;9.68;3.10;;;9.70;99.90;;;;;;5116169;28;20211;-63
2023/12/13 01:45:10;;;;;;;9.63;3.05;;;9.70;99.90;;;;;;5116131;28;20174;-63
2023/12/13 01:47:37;;;;;;;10.48;2.95;;;9.80;99.90;;;;;;5116075;28;20185;-63
2023/12/13 01:50:04;;;;;;;11.18;2.78;;;9.70;99.90;;;;;;5115953;28;20201;-63
2023/12/13 01:52:29;;;;;;;11.40;2.92;;;9.60;99.90;;;;;;5115936;28;20182;-63
2023/12/13 01:54:55;;;;;;;9.80;2.72;;;9.60;99.90;;;;;;5115942;28;20176;-63
2023/12/13 01:57:21;;;;;;;11.70;2.85;;;9.70;99.90;;;;;;5115894;28;20222;-63
2023/12/13 01:59:47;;;;;;;10.68;3.00;;;9.80;99.90;;;;;;5115795;28;20648;-63
2023/12/13 02:02:13;;;;;;;16.73;3.33;;;9.80;99.90;;;;;;5115518;28;20177;-63
2023/12/13 02:04:40;;;;;;;14.50;3.33;;;9.80;99.90;;;;;;5115470;28;20177;-63
2023/12/13 02:07:06;;;;;;;11.02;2.83;;;9.80;99.90;;;;;;5115534;28;20259;-63
2023/12/13 02:09:31;;;;;;;14.57;3.25;;;9.80;99.90;;;;;;5115617;28;20775;-63
2023/12/13 02:11:58;;;;;;;12.63;2.90;;;9.80;99.90;;;;;;5115600;28;20201;-63
2023/12/13 02:14:25;;;;;;;10.27;2.85;;;9.80;99.90;;;;;;5115226;28;20532;-63
2023/12/13 02:16:51;;;;;;;16.13;3.70;;;9.80;99.90;;;;;;5115021;28;20184;-63
2023/12/13 02:19:16;;;;;;;12.80;2.63;;;9.70;99.90;;;;;;5115159;28;20264;-63
2023/12/13 02:21:42;;;;;;;10.80;3.15;;;9.70;99.90;;;;;;5115094;28;20217;-63
2023/12/13 02:24:08;;;;;;;10.90;2.80;;;9.80;99.90;;;;;;5115371;28;20197;-63
2023/12/13 02:26:41;;;;;;;13.88;3.38;;;9.80;99.90;;;;;;5115238;28;20200;-63
2023/12/13 02:29:08;;;;;;;13.95;3.33;;;9.80;99.90;;;;;;5115233;28;20621;-63
2023/12/13 02:31:35;;;;;;;12.48;2.92;;;9.80;99.90;;;;;;5115146;28;20241;-62
2023/12/13 02:34:01;;;;;;;12.60;3.10;;;9.80;99.90;;;;;;5115139;28;20226;-63
2023/12/13 02:36:26;;;;;;;12.82;3.30;;;9.80;99.90;;;;;;5114856;28;20169;-63
2023/12/13 02:38:52;;;;;;;12.73;3.20;;;9.70;99.90;;;;;;5115052;28;20626;-63
2023/12/13 02:41:18;;;;;;;11.93;3.10;;;9.70;99.90;;;;;;5115285;28;20161;-63
2023/12/13 02:43:44;;;;;;;13.38;3.13;;;9.70;99.90;;;;;;5114935;28;20185;-63
2023/12/13 02:46:10;;;;;;;8.63;2.47;;;9.70;99.90;;;;;;5114887;28;20178;-62
2023/12/13 02:48:35;;;;;;;9.65;3.08;;;9.60;99.90;;;;;;5114732;28;20185;-63
2023/12/13 02:51:01;;;;;;;11.32;3.17;;;9.70;99.90;;;;;;5114809;28;20238;-63
2023/12/13 02:53:27;;;;;;;15.90;3.72;;;9.70;99.90;;;;;;5114763;28;20173;-63
2023/12/13 02:55:52;;;;;;;13.48;3.13;;;9.70;99.90;;;;;;5114784;28;20173;-63
2023/12/13 02:58:18;;;;;;;10.27;3.42;;;9.70;99.90;;;;;;5114691;28;20184;-63
2023/12/13 03:00:44;;;;;;;10.40;3.22;;;9.70;99.90;;;;;;5114605;28;20180;-63
2023/12/13 03:03:09;;;;;;;13.52;3.55;;;9.70;99.90;;;;;;5114568;28;20169;-62
2023/12/13 03:05:35;;;;;;;9.48;3.40;;;9.70;99.90;;;;;;5114460;28;20179;-63
2023/12/13 03:08:01;;;;;;;14.38;3.50;;;9.70;99.90;;;;;;5114464;28;20200;-64
2023/12/13 03:10:27;;;;;;;14.23;3.13;;;9.70;99.90;;;;;;5114149;28;20230;-63
2023/12/13 03:12:53;;;;;;;11.77;3.72;;;9.80;99.90;;;;;;5113635;28;20173;-63
2023/12/13 03:15:19;;;;;;;14.38;3.92;;;9.70;99.90;;;;;;5114402;28;20205;-63
2023/12/13 03:17:45;;;;;;;14.05;3.45;;;9.70;99.90;;;;;;5114380;28;20571;-63
2023/12/13 03:20:11;;;;;;;12.77;3.30;;;9.60;99.90;;;;;;5113986;28;20676;-63
2023/12/13 03:22:37;;;;;;;10.95;2.85;;;9.60;99.90;;;;;;5114290;28;20319;-63
2023/12/13 03:25:04;;;;;;;9.18;2.90;;;9.70;99.90;;;;;;5114283;28;20204;-63
2023/12/13 03:27:30;;;;;;;12.93;3.00;;;9.60;99.90;;;;;;5114218;28;20181;-63
2023/12/13 03:29:55;;;;;;;9.05;2.67;;;9.70;99.90;;;;;;5114128;28;20288;-63
2023/12/13 03:32:21;;;;;;;9.90;3.20;;;9.70;99.90;;;;;;5114169;28;20181;-63
2023/12/13 03:34:47;;;;;;;10.50;2.65;;;9.70;99.90;;;;;;5114177;28;20177;-63
2023/12/13 03:37:14;;;;;;;14.68;3.45;;;9.60;99.90;;;;;;5114358;28;20177;-63
2023/12/13 03:39:40;;;;;;;12.23;2.85;;;9.60;99.90;;;;;;5114109;28;20208;-63
2023/12/13 03:42:05;;;;;;;13.25;3.67;;;9.60;99.90;;;;;;5114062;28;20211;-63
2023/12/13 03:44:31;;;;;;;15.57;2.85;;;9.60;99.90;;;;;;5114079;28;20180;-63
2023/12/13 03:46:57;;;;;;;13.65;2.90;;;9.60;99.90;;;;;;5114002;28;20165;-63
2023/12/13 03:49:23;;;;;;;9.40;3.00;;;9.60;99.90;;;;;;5113897;28;20262;-63
2023/12/13 03:51:48;;;;;;;12.80;3.72;;;9.60;99.90;;;;;;5113935;28;20170;-63
2023/12/13 03:54:15;;;;;;;13.43;3.17;;;9.60;99.90;;;;;;5113927;28;20628;-63
2023/12/13 03:56:41;;;;;;;10.07;2.70;;;9.60;99.90;;;;;;5113420;28;20173;-63
2023/12/13 03:59:07;;;;;;;10.80;2.92;;;9.60;99.90;;;;;;5113636;28;20665;-63
2023/12/13 04:01:32;;;;;;;14.18;3.50;;;9.60;99.90;;;;;;5113878;28;20174;-63
2023/12/13 04:03:58;;;;;;;17.33;3.20;;;9.60;99.90;;;;;;5113886;28;20181;-62
2023/12/13 04:06:24;;;;;;;10.30;2.97;;;9.70;99.90;;;;;;5113415;28;20176;-63
2023/12/13 04:08:49;;;;;;;13.45;3.97;;;9.60;99.90;;;;;;5113745;28;20197;-63
2023/12/13 04:11:15;;;;;;;11.52;3.65;;;9.60;99.90;;;;;;5113778;28;20264;-63
2023/12/13 04:13:41;;;;;;;15.43;4.15;;;9.60;99.90;;;;;;5113789;28;20210;-63
2023/12/13 04:16:07;;;;;;;10.27;3.28;;;9.60;99.90;;;;;;5113728;28;20226;-63
2023/12/13 04:18:33;;;;;;;12.73;3.45;;;9.60;99.90;;;;;;5112676;28;20564;-63
2023/12/13 04:20:59;;;;;;;9.27;2.70;;;9.70;99.90;;;;;;5113633;28;20174;-63
2023/12/13 04:23:24;;;;;;;11.77;3.13;;;9.60;99.90;;;;;;5113803;28;20225;-63
2023/12/13 04:25:50;;;;;;;12.93;3.20;;;9.70;99.90;;;;;;5117028;28;20230;-63
2023/12/13 04:28:16;;;;;;;12.20;3.03;;;9.70;99.90;;;;;;5117634;28;20204;-63
2023/12/13 04:30:42;;;;;;;11.75;3.10;;;9.60;99.90;;;;;;5117524;28;20657;-63
2023/12/13 04:33:07;;;;;;;10.57;3.05;;;9.70;99.90;;;;;;5117529;28;20181;-63
2023/12/13 04:35:33;;;;;;;11.50;3.80;;;9.70;99.90;;;;;;5117509;28;20599;-63
2023/12/13 04:37:59;;;;;;;11.95;3.33;;;9.70;99.90;;;;;;5117400;28;20181;-63
2023/12/13 04:40:25;;;;;;;14.50;3.90;;;9.60;99.90;;;;;;5117413;28;20246;-63
2023/12/13 04:42:50;;;;;;;11.73;3.92;;;9.70;99.90;;;;;;5117314;28;20200;-63
2023/12/13 04:45:16;;;;;;;11.48;3.50;;;9.80;99.90;;;;;;5117346;28;20169;-63
2023/12/13 04:47:42;;;;;;;12.98;3.75;;;9.80;99.90;;;;;;5117291;28;20166;-63
2023/12/13 04:50:08;;;;;;;9.55;2.70;;;9.60;99.90;;;;;;5115996;28;20281;-63
2023/12/13 04:52:34;;;;;;;10.63;3.00;;;9.70;99.90;;;;;;5117120;28;20169;-63
2023/12/13 04:55:00;;;;;;;12.68;2.85;;;9.70;99.90;;;;;;5117163;28;20735;-64
2023/12/13 04:57:25;;;;;;;12.75;3.15;;;9.60;99.90;;;;;;5116771;28;20166;-63
2023/12/13 04:59:51;;;;;;;14.70;3.70;;;9.60;99.90;;;;;;5117001;28;20537;-63
2023/12/13 05:02:17;;;;;;;12.32;3.33;;;9.60;99.90;;;;;;5116951;28;20256;-63
2023/12/13 05:04:42;;;;;;;12.80;3.45;;;9.60;99.90;;;;;;5116963;28;20517;-63
2023/12/13 05:07:08;;;;;;;10.38;3.38;;;9.50;99.90;;;;;;5116647;28;20166;-63
2023/12/13 05:09:35;;;;;;;14.70;3.83;;;9.50;99.90;;;;;;5116706;28;20205;-63
2023/12/13 05:12:00;;;;;;;9.45;3.28;;;9.50;99.90;;;;;;5116797;28;20208;-63
2023/12/13 05:14:26;;;;;;;15.07;3.90;;;9.60;99.90;;;;;;5116512;28;20169;-63
2023/12/13 05:16:51;;;;;;;15.20;3.63;;;9.50;99.90;;;;;;5116701;28;20181;-63
2023/12/13 05:19:17;;;;;;;14.88;3.70;;;9.50;99.90;;;;;;5116618;28;20181;-63
2023/12/13 05:21:43;;;;;;;11.35;3.33;;;9.50;99.90;;;;;;5116547;28;20716;-63
2023/12/13 05:24:08;;;;;;;14.15;3.67;;;9.50;99.90;;;;;;5116107;28;20178;-64
2023/12/13 05:26:35;;;;;;;11.48;3.38;;;9.60;99.90;;;;;;5116539;27;20218;-62
2023/12/13 05:29:02;;;;;;;13.57;3.40;;;9.60;99.90;;;;;;5116364;28;20228;-63
2023/12/13 05:31:27;;;;;;;13.10;3.33;;;9.70;99.90;;;;;;5116248;28;20165;-63
2023/12/13 05:33:53;;;;;;;9.60;3.30;;;9.70;99.90;;;;;;5116362;28;20198;-63
2023/12/13 05:36:19;;;;;;;13.88;4.07;;;9.60;99.90;;;;;;5115133;28;20177;-63
2023/12/13 05:38:45;;;;;;;12.73;4.30;;;9.70;99.90;;;;;;5116314;28;20534;-64
2023/12/13 05:41:10;;;;;;;11.73;3.85;;;9.70;99.90;;;;;;5116226;28;20518;-63
2023/12/13 05:43:36;;;;;;;11.40;3.72;;;9.60;99.90;;;;;;5116165;28;20587;-63
2023/12/13 05:46:06;;;;;;;12.25;3.22;;;9.70;99.90;;;;;;5116136;28;20206;-64
2023/12/13 05:48:32;;;;;;;9.60;3.47;;;9.70;99.90;;;;;;5116354;28;20180;-64
2023/12/13 05:50:58;;;;;;;8.65;3.35;;;9.60;99.90;;;;;;5115773;28;20182;-63
2023/12/13 05:53:24;;;;;;;10.18;3.53;;;9.70;99.90;;;;;;5116078;28;20685;-64
2023/12/13 05:55:50;;;;;;;10.02;3.17;;;9.60;99.90;;;;;;5115633;28;20204;-62
2023/12/13 05:58:15;;;;;;;11.98;3.40;;;9.60;99.90;;;;;;5115572;28;20173;-64
2023/12/13 06:00:41;;;;;;;7.40;3.08;;;9.60;99.90;;;;;;5115565;28;20205;-65
2023/12/13 06:03:07;;;;;;;7.63;3.25;;;9.60;99.90;;;;;;5115767;28;20173;-62
2023/12/13 06:05:33;;;;;;;10.05;3.65;;;9.60;99.90;;;;;;5115702;28;20179;-62
2023/12/13 06:07:58;;;;;;;10.27;3.90;;;9.60;99.90;;;;;;5115049;28;20249;-62
2023/12/13 06:10:24;;;;;;;9.38;3.35;;;9.60;99.90;;;;;;5113885;28;20200;-62
2023/12/13 06:12:52;;;;;;;12.60;4.00;;;9.70;99.90;;;;;;5113529;28;20189;-62
2023/12/13 06:15:24;;;;;;;13.82;4.18;;;9.60;99.90;;;;;;5112906;28;20186;-62
2023/12/13 06:17:50;;;;;;;16.80;4.90;;;9.60;99.90;;;;;;5114204;28;20498;-62
2023/12/13 06:20:16;;;;;;;11.95;3.72;;;9.60;99.90;;;;;;5114149;28;20230;-62
2023/12/13 06:22:42;;;;;;;13.20;4.82;;;9.60;99.90;;;;;;5114120;28;20311;-62
2023/12/13 06:25:08;;;;;;;14.18;4.72;;;9.50;99.90;;;;;;5114179;28;20635;-61
2023/12/13 06:27:33;;;;;;;10.65;4.32;;;9.60;99.90;;;;;;5114401;28;20180;-62
2023/12/13 06:29:59;;;;;;;13.13;4.57;;;9.60;99.90;;;;;;5113934;28;20192;-62
2023/12/13 06:32:25;;;;;;;11.65;4.45;;;9.60;99.90;;;;;;5114005;28;20180;-62
2023/12/13 06:34:50;;;;;;;12.48;4.28;;;9.50;99.90;;;;;;5113782;28;20567;-61
2023/12/13 06:37:16;;;;;;;12.18;4.40;;;9.60;99.90;;;;;;5114601;28;20169;-62
2023/12/13 06:39:42;;;;;;;12.23;3.70;;;9.50;99.90;;;;;;5114506;28;20250;-62
2023/12/13 06:42:10;;;;;;;8.85;4.60;;;9.50;99.90;;;;;;5114617;28;20185;-62
2023/12/13 06:44:37;;;;;;;10.52;4.65;;;9.50;99.90;;;;;;5114989;28;20208;-61
2023/12/13 06:47:03;;;;;;;15.20;4.57;;;9.50;99.90;;;;;;5114696;28;20201;-62
2023/12/13 06:49:30;;;;;;;12.95;4.75;;;9.60;99.90;;;;;;5114136;28;20742;-62
2023/12/13 06:51:57;;;;;;;11.02;4.15;;;9.50;99.90;;;;;;5114301;28;20179;-62
2023/12/13 06:54:23;;;;;;;13.02;4.75;;;9.50;99.90;;;;;;5114164;28;20169;-62
2023/12/13 06:56:48;;;;;;;13.00;4.60;;;9.60;99.90;;;;;;5113885;28;20184;-62
2023/12/13 06:59:14;;;;;;;13.98;4.88;;;9.50;99.90;;;;;;5113986;28;20210;-62
2023/12/13 07:01:40;;;;;;;15.05;6.05;;;9.50;99.90;;;;;;5114034;28;20207;-62
2023/12/13 07:04:06;;;;;;;17.52;6.07;;;9.60;99.90;;;;;;5114010;28;20599;-62
2023/12/13 07:06:32;;;;;;;12.45;5.70;;;9.60;99.90;;;;;;5113894;28;20220;-62
2023/12/13 07:08:59;;;;;;;12.05;5.85;;;9.60;99.90;;;;;;5113514;28;20227;-62
2023/12/13 07:11:24;;;;;;;17.10;6.93;;;9.70;99.90;;;;;;5114380;28;20264;-62
2023/12/13 07:13:50;;;;;;;14.70;5.03;;;9.70;99.90;;;;;;5113739;28;20595;-62
2023/12/13 07:16:16;;;;;;;11.98;4.72;;;9.60;99.90;;;;;;5113492;28;20181;-62
2023/12/13 07:18:42;;;;;;;13.35;4.22;;;9.70;99.90;;;;;;5113403;28;20200;-64
2023/12/13 07:21:07;;;;;;;12.20;4.20;;;9.60;99.90;;;;;;5113773;28;20173;-61
2023/12/13 07:23:35;;;;;;;11.38;4.43;;;9.60;99.90;;;;;;5114112;28;20714;-61
2023/12/13 07:26:02;;;;;;;17.42;4.82;;;9.60;99.90;;;;;;5113366;28;20177;-61
2023/12/13 07:28:28;;;;;;;11.88;5.30;;;9.60;99.90;;;;;;5113587;28;20260;-62
2023/12/13 07:30:55;;;;;;;15.88;5.53;;;9.60;99.90;;;;;;5113808;28;20299;-62
2023/12/13 07:33:20;;;;;;;13.65;5.47;;;9.70;99.90;;;;;;5114141;28;20172;-62
2023/12/13 07:35:47;;;;;;;10.90;4.50;;;9.70;99.90;;;;;;5114141;28;20173;-62
2023/12/13 07:38:14;;;;;;;11.93;4.32;;;9.60;99.90;;;;;;5113236;28;20177;-62
2023/12/13 07:40:40;;;;;;;9.70;4.55;;;9.70;99.90;;;;;;5113098;28;20181;-62
2023/12/13 07:43:06;;;;;;;8.40;4.00;;;9.60;99.90;;;;;;5113970;28;20174;-62
2023/12/13 07:45:32;;;;;;;9.95;4.38;;;9.50;99.90;;;;;;5113735;28;20248;-61
2023/12/13 07:47:57;;;;;;;8.90;4.60;;;9.60;99.90;;;;;;5113802;28;20281;-62
2023/12/13 07:50:23;;;;;;;8.32;4.20;;;9.60;99.90;;;;;;5113761;28;20246;-61
2023/12/13 07:52:49;;;;;;;11.10;4.40;;;9.60;99.90;;;;;;5113503;28;20204;-61
2023/12/13 07:55:19;;;;;;;9.25;4.43;;;9.60;99.90;;;;;;5113920;28;20177;-62
2023/12/13 07:57:45;;;;;;;12.70;4.50;;;9.60;99.90;;;;;;5113474;28;20642;-61
2023/12/13 08:00:11;;;;;;;10.82;4.35;;;9.60;99.90;;;;;;5116399;28;20198;-62
2023/12/13 08:02:37;;;;;;;11.32;4.85;;;9.70;99.90;;;;;;5116974;28;20173;-62
2023/12/13 08:05:03;;;;;;;10.15;4.15;;;9.60;99.90;;;;;;5117546;28;20181;-62
2023/12/13 08:07:30;;;;;;;10.98;4.25;;;9.60;99.90;;;;;;5117977;28;20172;-61
2023/12/13 08:09:59;;;;;;;10.10;4.32;;;9.60;99.90;;;;;;5117572;28;20200;-61
2023/12/13 08:12:25;;;;;;;12.07;4.72;;;9.70;99.90;;;;;;5117076;28;20538;-61
2023/12/13 08:14:51;;;;;;;14.90;5.00;;;9.70;99.90;;;;;;5116910;28;20507;-61
2023/12/13 08:17:18;;;;;;;7.50;4.05;;;9.70;99.90;;;;;;5117060;28;20260;-62
2023/12/13 08:19:43;;;;;;;11.32;4.05;;;9.70;99.90;;;;;;5116815;28;20211;-61
2023/12/13 08:22:09;;;;;;;11.25;4.13;;;9.70;99.90;;;;;;5116667;28;20225;-61
2023/12/13 08:24:35;;;;;;;12.85;4.22;;;9.70;99.90;;;;;;5117673;28;20598;-62
2023/12/13 08:27:00;;;;;;;12.15;4.50;;;9.70;99.90;;;;;;5117673;28;20173;-62
2023/12/13 08:29:26;;;;;;;11.52;4.03;;;9.70;99.90;;;;;;5116683;28;20287;-61
2023/12/13 08:31:52;;;;;;;16.77;4.05;;;9.80;99.90;;;;;;5116280;28;20192;-62
2023/12/13 08:34:18;;;;;;;7.50;3.38;;;9.70;99.90;;;;;;5117350;28;20203;-61
2023/12/13 08:36:44;;;;;;;11.52;3.60;;;9.80;99.90;;;;;;5116648;28;20653;-61
2023/12/13 08:39:11;;;;;;;9.48;3.55;;;9.80;99.90;;;;;;5117173;28;20339;-61
2023/12/13 08:41:36;;;;;;;9.52;3.92;;;9.90;99.90;;;;;;5117598;28;20182;-61
2023/12/13 08:44:02;;;;;;;10.32;4.60;;;9.90;99.90;;;;;;5117607;28;20176;-61
2023/12/13 08:46:28;;;;;;;12.27;4.50;;;9.90;99.90;;;;;;5117212;28;20165;-62
2023/12/13 08:48:54;;;;;;;12.95;4.22;;;9.80;99.90;;;;;;5117190;28;20180;-62
2023/12/13 08:51:19;;;;;;;14.35;4.90;;;10.00;99.90;;;;;;5117203;28;20208;-61
2023/12/13 08:53:48;;;;;;;11.10;4.38;;;10.00;99.90;;;;;;5117214;28;20170;-62
2023/12/13 08:56:15;;;;;;;9.48;4.47;;;9.90;99.90;;;;;;5117099;28;20173;-62
2023/12/13 08:58:41;;;;;;;14.32;4.82;;;9.90;99.90;;;;;;5117024;28;20622;-61
2023/12/13 09:01:06;;;;;;;12.15;5.10;;;9.90;99.90;;;;;;5117031;28;20170;-61
2023/12/13 09:03:32;;;;;;;10.90;5.13;;;9.90;99.90;;;;;;5116921;28;20234;-61
2023/12/13 09:05:58;;;;;;;10.70;5.00;;;9.90;99.90;;;;;;5116949;28;20189;-61
2023/12/13 09:08:24;;;;;;;11.57;5.07;;;9.90;99.90;;;;;;5116874;28;20621;-61
2023/12/13 09:10:49;;;;;;;10.00;5.30;;;9.90;99.90;;;;;;5115055;28;20248;-62
2023/12/13 09:13:15;;;;;;;11.88;5.05;;;9.90;99.90;;;;;;5116625;28;20184;-62
2023/12/13 09:15:42;;;;;;;12.30;5.60;;;9.80;99.90;;;;;;5116377;28;20177;-61
2023/12/13 09:18:08;;;;;;;12.40;5.30;;;9.90;99.90;;;;;;5116521;28;20174;-61
2023/12/13 09:20:34;;;;;;;13.35;5.22;;;9.80;99.90;;;;;;5116693;28;20218;-62
2023/12/13 09:23:00;;;;;;;14.20;5.93;;;9.90;99.90;;;;;;5116626;28;20213;-62
2023/12/13 09:25:26;;;;;;;11.00;5.78;;;9.90;99.90;;;;;;5116185;28;20173;-61
2023/12/13 09:27:51;;;;;;;12.38;5.70;;;9.90;99.90;;;;;;5116584;28;20614;-61
2023/12/13 09:30:17;;;;;;;14.55;5.60;;;10.00;99.90;;;;;;5116415;28;20709;-61
2023/12/13 09:32:43;;;;;;;14.85;6.43;;;10.00;99.90;;;;;;5116545;28;20173;-61
2023/12/13 09:35:09;;;;;;;13.93;5.60;;;10.00;99.90;;;;;;5116384;28;20193;-61
2023/12/13 09:37:34;;;;;;;9.68;5.68;;;10.00;99.90;;;;;;5116343;28;20174;-62
2023/12/13 09:40:00;;;;;;;11.50;5.75;;;10.10;99.90;;;;;;5116294;28;20173;-61
2023/12/13 09:42:26;;;;;;;13.88;6.35;;;10.30;99.90;;;;;;5116160;28;20176;-61
2023/12/13 09:44:52;;;;;;;15.52;6.57;;;10.30;99.90;;;;;;5116183;28;20177;-61
2023/12/13 09:47:21;;;;;;;13.57;5.82;;;10.40;99.90;;;;;;5115592;28;20530;-61
2023/12/13 09:49:48;;;;;;;10.10;6.03;;;10.40;99.90;;;;;;5115792;28;20292;-61
2023/12/13 09:52:18;;;;;;;11.48;5.82;;;10.30;99.90;;;;;;5115932;28;20189;-61
2023/12/13 09:54:45;;;;;;;11.02;5.80;;;10.40;99.90;;;;;;5116177;28;20204;-61
2023/12/13 09:57:11;;;;;;;10.40;5.90;;;10.30;99.90;;;;;;5115949;28;20354;-61
2023/12/13 09:59:38;;;;;;;10.55;5.90;;;10.20;99.90;;;;;;5115897;28;20173;-61
2023/12/13 10:02:14;;;;;;;8.55;5.97;;;10.30;99.90;;;;;;5115778;28;20184;-61
2023/12/13 10:04:40;;;;;;;11.65;6.43;;;10.30;99.90;;;;;;5115808;28;20161;-61
2023/12/13 10:07:07;;;;;;;11.32;5.97;;;10.30;99.90;;;;;;5115814;28;20256;-61
2023/12/13 10:09:34;;;;;;;11.13;5.80;;;10.20;99.90;;;;;;5115640;28;20201;-61
2023/12/13 10:12:00;;;;;;;11.48;5.80;;;10.30;99.90;;;;;;5115585;28;20235;-61
2023/12/13 10:14:26;;;;;;;12.38;6.10;;;10.30;99.90;;;;;;5115601;28;20607;-61
2023/12/13 10:16:52;;;;;;;12.82;5.88;;;10.30;99.90;;;;;;5115559;28;20178;-61
2023/12/13 10:19:18;;;;;;;12.23;5.90;;;10.40;99.90;;;;;;5115490;28;20173;-61
2023/12/13 10:21:48;;;;;;;13.32;7.18;;;10.30;99.90;;;;;;5114463;28;20228;-61
2023/12/13 10:24:15;;;;;;;13.30;6.80;;;10.30;99.90;;;;;;5115374;28;20166;-61
2023/12/13 10:26:40;;;;;;;13.75;7.00;;;10.40;99.90;;;;;;5115279;28;20645;-61
2023/12/13 10:29:07;;;;;;;9.57;6.57;;;10.40;99.90;;;;;;5115507;28;20196;-61
2023/12/13 10:31:33;;;;;;;10.95;7.15;;;10.40;99.90;;;;;;5115213;28;20176;-61
2023/12/13 10:33:59;;;;;;;10.25;6.95;;;10.40;99.90;;;;;;5115193;28;20174;-61
2023/12/13 10:36:26;;;;;;;13.93;7.25;;;10.50;99.90;;;;;;5114792;28;20507;-61
2023/12/13 10:38:56;;;;;;;12.13;6.78;;;10.50;99.90;;;;;;5115113;28;20248;-61
2023/12/13 10:41:25;;;;;;;11.57;6.45;;;10.50;99.90;;;;;;5115029;28;20572;-61
2023/12/13 10:43:55;;;;;;;15.57;6.65;;;10.50;99.90;;;;;;5115069;28;20193;-61
2023/12/13 10:46:23;;;;;;;15.48;7.05;;;10.40;99.90;;;;;;5115015;28;20173;-61
2023/12/13 10:48:49;;;;;;;13.40;6.90;;;10.30;99.90;;;;;;5114478;28;20264;-61
2023/12/13 10:51:16;;;;;;;12.35;7.28;;;10.30;99.90;;;;;;5114792;28;20177;-61
2023/12/13 10:53:44;;;;;;;12.95;7.60;;;10.30;99.90;;;;;;5114893;28;20173;-61
2023/12/13 10:56:11;;;;;;;14.10;7.68;;;10.40;99.90;;;;;;5114838;28;20173;-61
2023/12/13 10:58:37;;;;;;;13.13;7.20;;;10.40;99.90;;;;;;5114783;28;20192;-61
2023/12/13 11:01:05;;;;;;;14.02;7.13;;;10.40;99.90;;;;;;5115027;28;20216;-61
2023/12/13 11:03:35;;;;;;;12.05;7.18;;;10.50;99.90;;;;;;5114684;28;20173;-61
2023/12/13 11:06:05;;;;;;;12.50;7.53;;;10.50;99.90;;;;;;5114542;28;20174;-61
2023/12/13 11:08:38;;;;;;;12.32;7.38;;;10.50;99.90;;;;;;5114622;28;20166;-61
2023/12/13 11:11:06;;;;;;;15.18;8.13;;;10.60;99.90;;;;;;5114128;28;20193;-61
2023/12/13 11:13:36;;;;;;;12.25;7.70;;;10.60;99.90;;;;;;5114498;28;20204;-61
2023/12/13 11:16:16;;;;;;;14.88;7.18;;;10.60;99.90;;;;;;5114782;28;20192;-61
2023/12/13 11:18:43;;;;;;;13.50;7.65;;;10.60;99.90;;;;;;5114446;28;20639;-61
2023/12/13 11:21:08;;;;;;;9.88;7.15;;;10.60;99.90;;;;;;5114232;28;20184;-61
2023/12/13 11:23:39;;;;;;;12.43;7.45;;;10.70;99.90;;;;;;5114346;28;20264;-61
2023/12/13 11:26:14;;;;;;;10.50;6.82;;;10.80;99.90;;;;;;5114316;28;20162;-61
2023/12/13 11:28:40;;;;;;;10.90;6.60;;;10.90;99.90;;;;;;5114253;28;20168;-61
2023/12/13 11:31:10;;;;;;;11.48;7.30;;;10.90;99.90;;;;;;5114136;28;20213;-61
2023/12/13 11:33:36;;;;;;;10.93;7.30;;;10.90;99.90;;;;;;5113507;28;20157;-61
2023/12/13 11:36:08;;;;;;;12.85;6.90;;;10.90;99.90;;;;;;5114388;28;20750;-61
2023/12/13 11:38:34;;;;;;;10.18;6.93;;;10.80;99.90;;;;;;5114196;28;20170;-61
2023/12/13 11:41:00;;;;;;;10.32;7.10;;;10.70;99.90;;;;;;5114070;28;20560;-61
2023/12/13 11:43:26;;;;;;;10.70;7.32;;;10.70;99.90;;;;;;5114101;28;20645;-61
2023/12/13 11:45:52;;;;;;;12.20;7.15;;;10.60;99.90;;;;;;5114020;28;20611;-61
2023/12/13 11:48:18;;;;;;;10.32;7.72;;;10.70;99.90;;;;;;5113944;28;20222;-61
2023/12/13 11:50:43;;;;;;;9.57;7.43;;;10.60;99.90;;;;;;5113913;28;20588;-61
2023/12/13 11:53:10;;;;;;;8.80;7.75;;;10.70;99.90;;;;;;5113707;28;20173;-61
2023/12/13 11:55:36;;;;;;;10.10;7.50;;;10.70;99.90;;;;;;5113988;28;20499;-61
2023/12/13 11:58:03;;;;;;;8.95;7.25;;;10.80;99.90;;;;;;5113992;28;20263;-61
2023/12/13 12:00:29;;;;;;;9.07;7.22;;;10.80;99.90;;;;;;5113986;28;20503;-61
2023/12/13 12:02:55;;;;;;;9.35;6.65;;;10.80;99.90;;;;;;5113872;28;20176;-61
2023/12/13 12:05:23;;;;;;;8.90;6.78;;;10.90;99.90;;;;;;5114201;28;20518;-61
2023/12/13 12:07:57;;;;;;;11.05;7.22;;;10.90;99.90;;;;;;5113778;28;20511;-61
2023/12/13 12:10:22;;;;;;;10.55;7.45;;;11.00;99.90;;;;;;5113406;28;20197;-61
2023/12/13 12:12:51;;;;;;;11.35;7.80;;;11.00;99.90;;;;;;5113765;28;20239;-61
2023/12/13 12:15:19;;;;;;;10.35;7.70;;;11.10;99.90;;;;;;5113762;28;20173;-61
2023/12/13 12:17:45;;;;;;;11.13;7.53;;;11.10;99.90;;;;;;5113711;28;20170;-61
2023/12/13 12:20:13;;;;;;;8.48;7.43;;;11.10;99.90;;;;;;5113427;28;20260;-61
2023/12/13 12:22:38;;;;;;;8.77;7.82;;;11.20;99.90;;;;;;5113711;28;20225;-61
2023/12/13 12:25:05;;;;;;;9.57;7.85;;;11.20;99.90;;;;;;5113676;28;20261;-61
2023/12/13 12:27:31;;;;;;;11.73;8.38;;;11.20;99.90;;;;;;5113329;28;20729;-61
2023/12/13 12:29:57;;;;;;;9.25;8.27;;;11.20;99.90;;;;;;5113578;28;20288;-61
2023/12/13 12:32:23;;;;;;;12.48;11.13;;;11.20;99.90;;;;;;5113578;28;20169;-61
2023/12/13 12:34:49;;;;;;;10.23;8.00;;;11.20;99.90;;;;;;5113596;28;20513;-61
2023/12/13 12:37:15;;;;;;;10.18;8.18;;;11.10;99.90;;;;;;5113170;28;20177;-61
2023/12/13 12:39:41;;;;;;;8.73;7.57;;;11.20;99.90;;;;;;5113560;28;20169;-61